sensor_id;sensor_type;location;lat;lon;timestamp;temperature;humidity
81140;SHT31;70624;51.978;5.656;2024-02-28T00:02:07;6.6;69.6
81140;SHT31;70624;51.978;5.656;2024-02-28T00:04:35;6.6;69.8
81140;SHT31;70624;51.978;5.656;2024-02-28T00:07:06;6.6;69.7
81140;SHT31;70624;51.978;5.656;2024-02-28T00:09:34;6.6;69.7
81140;SHT31;70624;51.978;5.656;2024-02-28T00:12:03;6.6;69.6
81140;SHT31;70624;51.978;5.656;2024-02-28T00:14:31;6.6;69.6
81140;SHT31;70624;51.978;5.656;2024-02-28T00:16:59;6.6;69.7
81140;SHT31;70624;51.978;5.656;2024-02-28T00:19:28;6.6;69.6
81140;SHT31;70624;51.978;5.656;2024-02-28T00:21:56;6.6;69.5
81140;SHT31;70624;51.978;5.656;2024-02-28T00:24:26;6.6;69.6
81140;SHT31;70624;51.978;5.656;2024-02-28T00:26:55;6.6;69.6
81140;SHT31;70624;51.978;5.656;2024-02-28T00:29:24;6.6;69.8
81140;SHT31;70624;51.978;5.656;2024-02-28T00:31:52;6.6;69.7
81140;SHT31;70624;51.978;5.656;2024-02-28T00:34:21;6.6;69.9
81140;SHT31;70624;51.978;5.656;2024-02-28T00:36:49;6.6;70.1
81140;SHT31;70624;51.978;5.656;2024-02-28T00:39:18;6.5;70.3
81140;SHT31;70624;51.978;5.656;2024-02-28T00:41:46;6.5;70.3
81140;SHT31;70624;51.978;5.656;2024-02-28T00:44:15;6.5;70.4
81140;SHT31;70624;51.978;5.656;2024-02-28T00:46:43;6.5;70.4
81140;SHT31;70624;51.978;5.656;2024-02-28T00:49:12;6.5;70.7
81140;SHT31;70624;51.978;5.656;2024-02-28T00:51:40;6.5;70.4
81140;SHT31;70624;51.978;5.656;2024-02-28T00:54:08;6.5;70.4
81140;SHT31;70624;51.978;5.656;2024-02-28T00:56:37;6.6;70.5
81140;SHT31;70624;51.978;5.656;2024-02-28T00:59:05;6.6;70.7
81140;SHT31;70624;51.978;5.656;2024-02-28T01:01:37;6.6;70.6
81140;SHT31;70624;51.978;5.656;2024-02-28T01:04:05;6.6;70.6
81140;SHT31;70624;51.978;5.656;2024-02-28T01:06:34;6.6;70.6
81140;SHT31;70624;51.978;5.656;2024-02-28T01:09:03;6.6;70.5
81140;SHT31;70624;51.978;5.656;2024-02-28T01:11:32;6.6;70.5
81140;SHT31;70624;51.978;5.656;2024-02-28T01:14:01;6.6;70.4
81140;SHT31;70624;51.978;5.656;2024-02-28T01:16:29;6.6;70.4
81140;SHT31;70624;51.978;5.656;2024-02-28T01:18:58;6.6;70.5
81140;SHT31;70624;51.978;5.656;2024-02-28T01:21:26;6.6;70.7
81140;SHT31;70624;51.978;5.656;2024-02-28T01:23:55;6.6;70.4
81140;SHT31;70624;51.978;5.656;2024-02-28T01:26:23;6.5;70.3
81140;SHT31;70624;51.978;5.656;2024-02-28T01:28:52;6.5;70.4
81140;SHT31;70624;51.978;5.656;2024-02-28T01:31:20;6.5;70.5
81140;SHT31;70624;51.978;5.656;2024-02-28T01:33:49;6.5;70.8
81140;SHT31;70624;51.978;5.656;2024-02-28T01:36:17;6.5;70.8
81140;SHT31;70624;51.978;5.656;2024-02-28T01:38:46;6.5;70.7
81140;SHT31;70624;51.978;5.656;2024-02-28T01:41:14;6.5;70.8
81140;SHT31;70624;51.978;5.656;2024-02-28T01:43:42;6.5;71.3
81140;SHT31;70624;51.978;5.656;2024-02-28T01:46:22;6.5;71.4
81140;SHT31;70624;51.978;5.656;2024-02-28T01:48:52;6.5;71.2
81140;SHT31;70624;51.978;5.656;2024-02-28T01:51:22;6.5;71.5
81140;SHT31;70624;51.978;5.656;2024-02-28T01:53:52;6.5;71.3
81140;SHT31;70624;51.978;5.656;2024-02-28T01:56:25;6.5;71.5
81140;SHT31;70624;51.978;5.656;2024-02-28T01:58:55;6.5;71.3
81140;SHT31;70624;51.978;5.656;2024-02-28T02:01:28;6.5;71.2
81140;SHT31;70624;51.978;5.656;2024-02-28T02:03:56;6.5;71.3
81140;SHT31;70624;51.978;5.656;2024-02-28T02:06:27;6.5;71.2
81140;SHT31;70624;51.978;5.656;2024-02-28T02:08:56;6.6;71.1
81140;SHT31;70624;51.978;5.656;2024-02-28T02:11:25;6.6;71.2
81140;SHT31;70624;51.978;5.656;2024-02-28T02:13:54;6.6;71.4
81140;SHT31;70624;51.978;5.656;2024-02-28T02:16:23;6.6;71.4
81140;SHT31;70624;51.978;5.656;2024-02-28T02:18:53;6.6;71.3
81140;SHT31;70624;51.978;5.656;2024-02-28T02:21:23;6.6;71.3
81140;SHT31;70624;51.978;5.656;2024-02-28T02:23:52;6.6;71.2
81140;SHT31;70624;51.978;5.656;2024-02-28T02:26:23;6.6;71.0
81140;SHT31;70624;51.978;5.656;2024-02-28T02:28:51;6.6;71.2
81140;SHT31;70624;51.978;5.656;2024-02-28T02:31:20;6.6;71.0
81140;SHT31;70624;51.978;5.656;2024-02-28T02:33:48;6.5;71.3
81140;SHT31;70624;51.978;5.656;2024-02-28T02:36:16;6.5;71.2
81140;SHT31;70624;51.978;5.656;2024-02-28T02:38:45;6.5;70.7
81140;SHT31;70624;51.978;5.656;2024-02-28T02:41:13;6.5;70.3
81140;SHT31;70624;51.978;5.656;2024-02-28T02:43:42;6.5;70.2
81140;SHT31;70624;51.978;5.656;2024-02-28T02:46:10;6.5;69.9
81140;SHT31;70624;51.978;5.656;2024-02-28T02:48:39;6.5;70.4
81140;SHT31;70624;51.978;5.656;2024-02-28T02:51:09;6.5;70.3
81140;SHT31;70624;51.978;5.656;2024-02-28T02:53:37;6.5;70.5
81140;SHT31;70624;51.978;5.656;2024-02-28T02:56:06;6.5;70.8
81140;SHT31;70624;51.978;5.656;2024-02-28T02:58:35;6.5;70.8
81140;SHT31;70624;51.978;5.656;2024-02-28T03:01:03;6.5;70.7
81140;SHT31;70624;51.978;5.656;2024-02-28T03:03:32;6.4;70.3
81140;SHT31;70624;51.978;5.656;2024-02-28T03:06:00;6.4;70.4
81140;SHT31;70624;51.978;5.656;2024-02-28T03:08:29;6.4;70.5
81140;SHT31;70624;51.978;5.656;2024-02-28T03:10:58;6.4;70.7
81140;SHT31;70624;51.978;5.656;2024-02-28T03:13:27;6.4;70.7
81140;SHT31;70624;51.978;5.656;2024-02-28T03:15:57;6.4;71.2
81140;SHT31;70624;51.978;5.656;2024-02-28T03:18:25;6.4;70.8
81140;SHT31;70624;51.978;5.656;2024-02-28T03:20:54;6.4;70.7
81140;SHT31;70624;51.978;5.656;2024-02-28T03:23:22;6.4;70.4
81140;SHT31;70624;51.978;5.656;2024-02-28T03:25:53;6.4;70.1
81140;SHT31;70624;51.978;5.656;2024-02-28T03:28:21;6.4;69.8
81140;SHT31;70624;51.978;5.656;2024-02-28T03:30:51;6.4;69.6
81140;SHT31;70624;51.978;5.656;2024-02-28T03:33:20;6.3;69.4
81140;SHT31;70624;51.978;5.656;2024-02-28T03:35:48;6.3;69.4
81140;SHT31;70624;51.978;5.656;2024-02-28T03:38:17;6.3;69.4
81140;SHT31;70624;51.978;5.656;2024-02-28T03:40:45;6.3;69.4
81140;SHT31;70624;51.978;5.656;2024-02-28T03:43:14;6.2;69.5
81140;SHT31;70624;51.978;5.656;2024-02-28T03:45:42;6.2;69.6
81140;SHT31;70624;51.978;5.656;2024-02-28T03:48:11;6.2;69.6
81140;SHT31;70624;51.978;5.656;2024-02-28T03:50:39;6.2;69.6
81140;SHT31;70624;51.978;5.656;2024-02-28T03:53:08;6.1;69.6
81140;SHT31;70624;51.978;5.656;2024-02-28T03:55:36;6.1;69.7
81140;SHT31;70624;51.978;5.656;2024-02-28T03:58:06;6.1;69.6
81140;SHT31;70624;51.978;5.656;2024-02-28T04:00:35;6.0;69.6
81140;SHT31;70624;51.978;5.656;2024-02-28T04:03:05;6.0;69.7
81140;SHT31;70624;51.978;5.656;2024-02-28T04:05:34;6.0;69.8
81140;SHT31;70624;51.978;5.656;2024-02-28T04:08:02;6.0;69.7
81140;SHT31;70624;51.978;5.656;2024-02-28T04:10:31;5.9;69.7
81140;SHT31;70624;51.978;5.656;2024-02-28T04:12:59;5.9;69.7
81140;SHT31;70624;51.978;5.656;2024-02-28T04:15:29;5.9;69.8
81140;SHT31;70624;51.978;5.656;2024-02-28T04:17:58;5.9;70.0
81140;SHT31;70624;51.978;5.656;2024-02-28T04:20:27;5.9;69.9
81140;SHT31;70624;51.978;5.656;2024-02-28T04:22:55;5.9;70.2
81140;SHT31;70624;51.978;5.656;2024-02-28T04:25:23;5.8;70.3
81140;SHT31;70624;51.978;5.656;2024-02-28T04:27:52;5.8;70.4
81140;SHT31;70624;51.978;5.656;2024-02-28T04:30:20;5.8;70.6
81140;SHT31;70624;51.978;5.656;2024-02-28T04:32:49;5.8;70.7
81140;SHT31;70624;51.978;5.656;2024-02-28T04:35:18;5.9;70.7
81140;SHT31;70624;51.978;5.656;2024-02-28T04:37:46;5.9;70.6
81140;SHT31;70624;51.978;5.656;2024-02-28T04:40:15;5.9;70.6
81140;SHT31;70624;51.978;5.656;2024-02-28T04:42:44;5.9;70.4
81140;SHT31;70624;51.978;5.656;2024-02-28T04:45:14;5.9;70.7
81140;SHT31;70624;51.978;5.656;2024-02-28T04:47:42;5.9;70.8
81140;SHT31;70624;51.978;5.656;2024-02-28T04:50:12;5.9;70.7
81140;SHT31;70624;51.978;5.656;2024-02-28T04:52:42;5.9;70.8
81140;SHT31;70624;51.978;5.656;2024-02-28T04:55:11;6.0;70.8
81140;SHT31;70624;51.978;5.656;2024-02-28T04:57:39;6.0;70.9
81140;SHT31;70624;51.978;5.656;2024-02-28T05:00:11;6.0;70.8
81140;SHT31;70624;51.978;5.656;2024-02-28T05:02:40;6.0;70.9
81140;SHT31;70624;51.978;5.656;2024-02-28T05:05:09;6.0;71.2
81140;SHT31;70624;51.978;5.656;2024-02-28T05:07:37;6.0;71.5
81140;SHT31;70624;51.978;5.656;2024-02-28T05:10:07;6.0;71.9
81140;SHT31;70624;51.978;5.656;2024-02-28T05:12:36;6.1;71.5
81140;SHT31;70624;51.978;5.656;2024-02-28T05:15:05;6.1;71.3
81140;SHT31;70624;51.978;5.656;2024-02-28T05:17:34;6.1;71.2
81140;SHT31;70624;51.978;5.656;2024-02-28T05:20:03;6.1;70.9
81140;SHT31;70624;51.978;5.656;2024-02-28T05:22:33;6.1;70.7
81140;SHT31;70624;51.978;5.656;2024-02-28T05:25:01;6.2;70.5
81140;SHT31;70624;51.978;5.656;2024-02-28T05:27:30;6.2;70.4
81140;SHT31;70624;51.978;5.656;2024-02-28T05:29:58;6.2;70.3
81140;SHT31;70624;51.978;5.656;2024-02-28T05:32:27;6.2;70.4
81140;SHT31;70624;51.978;5.656;2024-02-28T05:34:56;6.2;70.3
81140;SHT31;70624;51.978;5.656;2024-02-28T05:37:24;6.2;70.2
81140;SHT31;70624;51.978;5.656;2024-02-28T05:39:53;6.2;70.2
81140;SHT31;70624;51.978;5.656;2024-02-28T05:42:21;6.2;70.0
81140;SHT31;70624;51.978;5.656;2024-02-28T05:44:50;6.2;70.0
81140;SHT31;70624;51.978;5.656;2024-02-28T05:47:20;6.2;70.2
81140;SHT31;70624;51.978;5.656;2024-02-28T05:49:49;6.2;70.3
81140;SHT31;70624;51.978;5.656;2024-02-28T05:52:17;6.2;70.7
81140;SHT31;70624;51.978;5.656;2024-02-28T05:54:46;6.2;70.7
81140;SHT31;70624;51.978;5.656;2024-02-28T05:57:14;6.2;70.8
81140;SHT31;70624;51.978;5.656;2024-02-28T05:59:43;6.2;71.0
81140;SHT31;70624;51.978;5.656;2024-02-28T06:02:11;6.2;70.7
81140;SHT31;70624;51.978;5.656;2024-02-28T06:04:39;6.2;70.7
81140;SHT31;70624;51.978;5.656;2024-02-28T06:07:08;6.2;70.9
81140;SHT31;70624;51.978;5.656;2024-02-28T06:09:36;6.2;70.9
81140;SHT31;70624;51.978;5.656;2024-02-28T06:12:05;6.2;70.8
81140;SHT31;70624;51.978;5.656;2024-02-28T06:14:34;6.2;70.8
81140;SHT31;70624;51.978;5.656;2024-02-28T06:17:02;6.2;70.8
81140;SHT31;70624;51.978;5.656;2024-02-28T06:19:31;6.2;70.9
81140;SHT31;70624;51.978;5.656;2024-02-28T06:21:59;6.2;70.9
81140;SHT31;70624;51.978;5.656;2024-02-28T06:24:28;6.2;70.8
81140;SHT31;70624;51.978;5.656;2024-02-28T06:26:56;6.3;70.8
81140;SHT31;70624;51.978;5.656;2024-02-28T06:29:24;6.3;70.8
81140;SHT31;70624;51.978;5.656;2024-02-28T06:31:53;6.3;70.8
81140;SHT31;70624;51.978;5.656;2024-02-28T06:34:22;6.3;70.8
81140;SHT31;70624;51.978;5.656;2024-02-28T06:36:51;6.4;70.3
81140;SHT31;70624;51.978;5.656;2024-02-28T06:39:19;6.4;70.4
81140;SHT31;70624;51.978;5.656;2024-02-28T06:41:49;6.4;70.5
81140;SHT31;70624;51.978;5.656;2024-02-28T06:44:18;6.4;70.5
81140;SHT31;70624;51.978;5.656;2024-02-28T06:46:47;6.4;70.3
81140;SHT31;70624;51.978;5.656;2024-02-28T06:49:15;6.4;70.3
81140;SHT31;70624;51.978;5.656;2024-02-28T06:51:44;6.4;70.0
81140;SHT31;70624;51.978;5.656;2024-02-28T06:54:13;6.5;70.2
81140;SHT31;70624;51.978;5.656;2024-02-28T06:56:41;6.5;70.1
81140;SHT31;70624;51.978;5.656;2024-02-28T06:59:11;6.5;69.9
81140;SHT31;70624;51.978;5.656;2024-02-28T07:01:40;6.5;69.9
81140;SHT31;70624;51.978;5.656;2024-02-28T07:04:08;6.5;69.8
81140;SHT31;70624;51.978;5.656;2024-02-28T07:06:37;6.5;70.0
81140;SHT31;70624;51.978;5.656;2024-02-28T07:09:07;6.5;70.1
81140;SHT31;70624;51.978;5.656;2024-02-28T07:11:37;6.5;70.0
81140;SHT31;70624;51.978;5.656;2024-02-28T07:14:05;6.5;69.9
81140;SHT31;70624;51.978;5.656;2024-02-28T07:16:34;6.5;69.8
81140;SHT31;70624;51.978;5.656;2024-02-28T07:19:02;6.5;69.8
81140;SHT31;70624;51.978;5.656;2024-02-28T07:21:31;6.5;69.7
81140;SHT31;70624;51.978;5.656;2024-02-28T07:23:59;6.6;70.0
81140;SHT31;70624;51.978;5.656;2024-02-28T07:26:29;6.6;70.1
81140;SHT31;70624;51.978;5.656;2024-02-28T07:28:57;6.6;70.3
81140;SHT31;70624;51.978;5.656;2024-02-28T07:31:26;6.6;70.1
81140;SHT31;70624;51.978;5.656;2024-02-28T07:33:55;6.6;70.3
81140;SHT31;70624;51.978;5.656;2024-02-28T07:36:25;6.7;70.0
81140;SHT31;70624;51.978;5.656;2024-02-28T07:38:54;6.7;69.4
81140;SHT31;70624;51.978;5.656;2024-02-28T07:41:23;6.7;69.7
81140;SHT31;70624;51.978;5.656;2024-02-28T07:43:51;6.7;69.3
81140;SHT31;70624;51.978;5.656;2024-02-28T07:46:20;6.7;69.5
81140;SHT31;70624;51.978;5.656;2024-02-28T07:48:50;6.8;69.8
81140;SHT31;70624;51.978;5.656;2024-02-28T07:51:18;6.8;69.8
81140;SHT31;70624;51.978;5.656;2024-02-28T07:53:47;6.8;69.9
81140;SHT31;70624;51.978;5.656;2024-02-28T07:56:20;6.8;70.0
81140;SHT31;70624;51.978;5.656;2024-02-28T07:58:48;6.9;69.8
81140;SHT31;70624;51.978;5.656;2024-02-28T08:01:17;6.9;70.0
81140;SHT31;70624;51.978;5.656;2024-02-28T08:03:46;6.9;70.0
81140;SHT31;70624;51.978;5.656;2024-02-28T08:06:14;6.9;69.9
81140;SHT31;70624;51.978;5.656;2024-02-28T08:08:43;7.0;70.0
81140;SHT31;70624;51.978;5.656;2024-02-28T08:11:12;7.0;69.5
81140;SHT31;70624;51.978;5.656;2024-02-28T08:13:41;7.0;69.8
81140;SHT31;70624;51.978;5.656;2024-02-28T08:16:10;7.0;69.5
81140;SHT31;70624;51.978;5.656;2024-02-28T08:18:38;7.0;69.3
81140;SHT31;70624;51.978;5.656;2024-02-28T08:21:07;7.1;69.4
81140;SHT31;70624;51.978;5.656;2024-02-28T08:23:36;7.1;69.7
81140;SHT31;70624;51.978;5.656;2024-02-28T08:26:07;7.1;69.1
81140;SHT31;70624;51.978;5.656;2024-02-28T08:28:35;7.1;69.2
81140;SHT31;70624;51.978;5.656;2024-02-28T08:31:04;7.2;69.2
81140;SHT31;70624;51.978;5.656;2024-02-28T08:33:32;7.2;69.3
81140;SHT31;70624;51.978;5.656;2024-02-28T08:36:01;7.2;69.2
81140;SHT31;70624;51.978;5.656;2024-02-28T08:38:29;7.2;69.3
81140;SHT31;70624;51.978;5.656;2024-02-28T08:40:58;7.2;69.1
81140;SHT31;70624;51.978;5.656;2024-02-28T08:43:28;7.2;69.0
81140;SHT31;70624;51.978;5.656;2024-02-28T08:45:57;7.2;69.5
81140;SHT31;70624;51.978;5.656;2024-02-28T08:48:25;7.2;69.4
81140;SHT31;70624;51.978;5.656;2024-02-28T08:50:54;7.2;69.4
81140;SHT31;70624;51.978;5.656;2024-02-28T08:53:22;7.2;69.7
81140;SHT31;70624;51.978;5.656;2024-02-28T08:55:50;7.2;69.9
81140;SHT31;70624;51.978;5.656;2024-02-28T08:58:19;7.3;69.9
81140;SHT31;70624;51.978;5.656;2024-02-28T09:00:47;7.3;69.9
81140;SHT31;70624;51.978;5.656;2024-02-28T09:03:16;7.3;69.9
81140;SHT31;70624;51.978;5.656;2024-02-28T09:05:45;7.4;69.7
81140;SHT31;70624;51.978;5.656;2024-02-28T09:08:14;7.4;69.6
81140;SHT31;70624;51.978;5.656;2024-02-28T09:10:42;7.4;69.3
81140;SHT31;70624;51.978;5.656;2024-02-28T09:13:11;7.5;69.1
81140;SHT31;70624;51.978;5.656;2024-02-28T09:15:39;7.5;69.3
81140;SHT31;70624;51.978;5.656;2024-02-28T09:18:08;7.5;69.6
81140;SHT31;70624;51.978;5.656;2024-02-28T09:20:37;7.5;69.9
81140;SHT31;70624;51.978;5.656;2024-02-28T09:23:06;7.5;70.4
81140;SHT31;70624;51.978;5.656;2024-02-28T09:25:35;7.6;70.3
81140;SHT31;70624;51.978;5.656;2024-02-28T09:28:03;7.6;70.6
81140;SHT31;70624;51.978;5.656;2024-02-28T09:30:32;7.6;70.3
81140;SHT31;70624;51.978;5.656;2024-02-28T09:33:00;7.6;70.6
81140;SHT31;70624;51.978;5.656;2024-02-28T09:35:29;7.7;70.8
81140;SHT31;70624;51.978;5.656;2024-02-28T09:37:57;7.7;70.8
81140;SHT31;70624;51.978;5.656;2024-02-28T09:40:26;7.7;71.1
81140;SHT31;70624;51.978;5.656;2024-02-28T09:43:00;7.8;71.3
81140;SHT31;70624;51.978;5.656;2024-02-28T09:45:29;7.8;70.9
81140;SHT31;70624;51.978;5.656;2024-02-28T09:47:59;7.8;71.1
81140;SHT31;70624;51.978;5.656;2024-02-28T09:50:30;7.9;71.0
81140;SHT31;70624;51.978;5.656;2024-02-28T09:52:58;7.9;71.0
81140;SHT31;70624;51.978;5.656;2024-02-28T09:55:27;8.0;71.1
81140;SHT31;70624;51.978;5.656;2024-02-28T09:57:57;8.0;70.7
81140;SHT31;70624;51.978;5.656;2024-02-28T10:00:26;8.1;70.4
81140;SHT31;70624;51.978;5.656;2024-02-28T10:02:59;8.1;70.3
81140;SHT31;70624;51.978;5.656;2024-02-28T10:05:29;8.2;70.2
81140;SHT31;70624;51.978;5.656;2024-02-28T10:07:58;8.2;70.4
81140;SHT31;70624;51.978;5.656;2024-02-28T10:10:28;8.2;70.2
81140;SHT31;70624;51.978;5.656;2024-02-28T10:12:56;8.3;70.3
81140;SHT31;70624;51.978;5.656;2024-02-28T10:15:26;8.3;70.4
81140;SHT31;70624;51.978;5.656;2024-02-28T10:17:54;8.3;70.7
81140;SHT31;70624;51.978;5.656;2024-02-28T10:20:23;8.4;70.7
81140;SHT31;70624;51.978;5.656;2024-02-28T10:22:54;8.4;70.6
81140;SHT31;70624;51.978;5.656;2024-02-28T10:25:22;8.5;70.5
81140;SHT31;70624;51.978;5.656;2024-02-28T10:27:52;8.5;70.8
81140;SHT31;70624;51.978;5.656;2024-02-28T10:30:21;8.6;70.3
81140;SHT31;70624;51.978;5.656;2024-02-28T10:32:50;8.6;70.0
81140;SHT31;70624;51.978;5.656;2024-02-28T10:35:18;8.7;69.8
81140;SHT31;70624;51.978;5.656;2024-02-28T10:37:52;8.7;70.1
81140;SHT31;70624;51.978;5.656;2024-02-28T10:40:22;8.8;70.5
81140;SHT31;70624;51.978;5.656;2024-02-28T10:42:53;8.8;70.5
81140;SHT31;70624;51.978;5.656;2024-02-28T10:45:23;8.9;70.6
81140;SHT31;70624;51.978;5.656;2024-02-28T10:47:56;9.0;70.4
81140;SHT31;70624;51.978;5.656;2024-02-28T10:50:25;9.0;70.4
81140;SHT31;70624;51.978;5.656;2024-02-28T10:53:01;9.1;70.1
81140;SHT31;70624;51.978;5.656;2024-02-28T10:55:34;9.2;70.0
81140;SHT31;70624;51.978;5.656;2024-02-28T10:58:08;9.3;70.2
81140;SHT31;70624;51.978;5.656;2024-02-28T11:00:39;9.4;69.8
81140;SHT31;70624;51.978;5.656;2024-02-28T11:03:14;9.4;69.7
81140;SHT31;70624;51.978;5.656;2024-02-28T11:05:44;9.5;69.2
81140;SHT31;70624;51.978;5.656;2024-02-28T11:08:24;9.6;69.2
81140;SHT31;70624;51.978;5.656;2024-02-28T11:10:58;9.7;68.9
81140;SHT31;70624;51.978;5.656;2024-02-28T11:13:29;9.8;68.7
81140;SHT31;70624;51.978;5.656;2024-02-28T11:16:08;9.9;68.4
81140;SHT31;70624;51.978;5.656;2024-02-28T11:18:49;9.9;69.0
81140;SHT31;70624;51.978;5.656;2024-02-28T11:21:18;10.0;68.8
81140;SHT31;70624;51.978;5.656;2024-02-28T11:23:47;10.0;68.5
81140;SHT31;70624;51.978;5.656;2024-02-28T11:26:16;10.1;68.3
81140;SHT31;70624;51.978;5.656;2024-02-28T11:28:46;10.2;68.0
81140;SHT31;70624;51.978;5.656;2024-02-28T11:31:15;10.2;67.4
81140;SHT31;70624;51.978;5.656;2024-02-28T11:33:45;10.3;67.9
81140;SHT31;70624;51.978;5.656;2024-02-28T11:36:14;10.3;67.6
81140;SHT31;70624;51.978;5.656;2024-02-28T11:38:43;10.4;67.4
81140;SHT31;70624;51.978;5.656;2024-02-28T11:41:12;10.4;67.5
81140;SHT31;70624;51.978;5.656;2024-02-28T11:43:40;10.5;67.4
81140;SHT31;70624;51.978;5.656;2024-02-28T11:46:10;10.5;67.6
81140;SHT31;70624;51.978;5.656;2024-02-28T11:48:39;10.6;67.5
81140;SHT31;70624;51.978;5.656;2024-02-28T11:51:07;10.6;67.8
81140;SHT31;70624;51.978;5.656;2024-02-28T11:53:36;10.7;67.5
81140;SHT31;70624;51.978;5.656;2024-02-28T11:56:05;10.8;67.3
81140;SHT31;70624;51.978;5.656;2024-02-28T11:58:34;10.8;67.4
81140;SHT31;70624;51.978;5.656;2024-02-28T12:01:02;10.9;67.2
81140;SHT31;70624;51.978;5.656;2024-02-28T12:03:32;10.9;67.2
81140;SHT31;70624;51.978;5.656;2024-02-28T12:06:00;10.9;67.7
81140;SHT31;70624;51.978;5.656;2024-02-28T12:08:31;11.0;67.1
81140;SHT31;70624;51.978;5.656;2024-02-28T12:11:08;11.0;67.1
81140;SHT31;70624;51.978;5.656;2024-02-28T12:13:37;11.1;66.9
81140;SHT31;70624;51.978;5.656;2024-02-28T12:16:07;11.1;66.7
81140;SHT31;70624;51.978;5.656;2024-02-28T12:18:38;11.2;66.7
81140;SHT31;70624;51.978;5.656;2024-02-28T12:21:09;11.2;67.0
81140;SHT31;70624;51.978;5.656;2024-02-28T12:23:37;11.2;67.1
81140;SHT31;70624;51.978;5.656;2024-02-28T12:26:06;11.3;66.5
81140;SHT31;70624;51.978;5.656;2024-02-28T12:28:34;11.3;66.5
81140;SHT31;70624;51.978;5.656;2024-02-28T12:31:03;11.4;66.1
81140;SHT31;70624;51.978;5.656;2024-02-28T12:33:35;11.4;66.4
81140;SHT31;70624;51.978;5.656;2024-02-28T12:36:03;11.5;66.4
81140;SHT31;70624;51.978;5.656;2024-02-28T12:38:34;11.5;66.4
81140;SHT31;70624;51.978;5.656;2024-02-28T12:41:03;11.5;65.8
81140;SHT31;70624;51.978;5.656;2024-02-28T12:43:32;11.6;65.6
81140;SHT31;70624;51.978;5.656;2024-02-28T12:46:00;11.6;65.9
81140;SHT31;70624;51.978;5.656;2024-02-28T12:48:29;11.6;65.9
81140;SHT31;70624;51.978;5.656;2024-02-28T12:50:58;11.6;66.0
81140;SHT31;70624;51.978;5.656;2024-02-28T12:53:26;11.7;65.9
81140;SHT31;70624;51.978;5.656;2024-02-28T12:55:55;11.7;65.8
81140;SHT31;70624;51.978;5.656;2024-02-28T12:58:23;11.7;65.8
81140;SHT31;70624;51.978;5.656;2024-02-28T13:00:52;11.8;65.7
81140;SHT31;70624;51.978;5.656;2024-02-28T13:03:21;11.8;65.6
81140;SHT31;70624;51.978;5.656;2024-02-28T13:05:49;11.8;66.8
81140;SHT31;70624;51.978;5.656;2024-02-28T13:09:48;12.5;63.5
81140;SHT31;70624;51.978;5.656;2024-02-28T13:12:17;12.6;63.8
81140;SHT31;70624;51.978;5.656;2024-02-28T13:14:46;12.6;63.4
81140;SHT31;70624;51.978;5.656;2024-02-28T13:17:14;12.7;63.1
81140;SHT31;70624;51.978;5.656;2024-02-28T13:19:44;12.7;62.9
81140;SHT31;70624;51.978;5.656;2024-02-28T13:22:12;12.7;62.2
81140;SHT31;70624;51.978;5.656;2024-02-28T13:24:40;12.7;62.4
81140;SHT31;70624;51.978;5.656;2024-02-28T13:27:09;12.6;62.5
81140;SHT31;70624;51.978;5.656;2024-02-28T13:29:37;12.6;63.3
81140;SHT31;70624;51.978;5.656;2024-02-28T13:32:07;12.6;63.3
81140;SHT31;70624;51.978;5.656;2024-02-28T13:34:35;12.6;63.5
81140;SHT31;70624;51.978;5.656;2024-02-28T13:37:04;12.6;63.6
81140;SHT31;70624;51.978;5.656;2024-02-28T13:39:32;12.6;63.9
81140;SHT31;70624;51.978;5.656;2024-02-28T13:42:01;12.6;63.4
81140;SHT31;70624;51.978;5.656;2024-02-28T13:44:32;12.7;63.5
81140;SHT31;70624;51.978;5.656;2024-02-28T13:47:02;12.7;62.9
81140;SHT31;70624;51.978;5.656;2024-02-28T13:49:31;12.7;62.8
81140;SHT31;70624;51.978;5.656;2024-02-28T13:52:00;12.7;63.0
81140;SHT31;70624;51.978;5.656;2024-02-28T13:54:28;12.6;63.5
81140;SHT31;70624;51.978;5.656;2024-02-28T13:56:57;12.6;63.0
81140;SHT31;70624;51.978;5.656;2024-02-28T13:59:27;12.6;62.9
81140;SHT31;70624;51.978;5.656;2024-02-28T14:01:56;12.6;63.5
81140;SHT31;70624;51.978;5.656;2024-02-28T14:04:26;12.7;63.5
81140;SHT31;70624;51.978;5.656;2024-02-28T14:06:56;12.7;63.4
81140;SHT31;70624;51.978;5.656;2024-02-28T14:09:25;12.7;63.3
81140;SHT31;70624;51.978;5.656;2024-02-28T14:11:53;12.8;63.2
81140;SHT31;70624;51.978;5.656;2024-02-28T14:14:22;12.8;63.3
81140;SHT31;70624;51.978;5.656;2024-02-28T14:16:50;12.8;62.7
81140;SHT31;70624;51.978;5.656;2024-02-28T14:19:19;12.9;62.9
81140;SHT31;70624;51.978;5.656;2024-02-28T14:21:47;12.9;62.8
81140;SHT31;70624;51.978;5.656;2024-02-28T14:24:16;12.9;62.9
81140;SHT31;70624;51.978;5.656;2024-02-28T14:26:46;12.9;62.6
81140;SHT31;70624;51.978;5.656;2024-02-28T14:29:15;13.0;62.5
81140;SHT31;70624;51.978;5.656;2024-02-28T14:31:43;13.0;62.0
81140;SHT31;70624;51.978;5.656;2024-02-28T14:34:12;13.0;61.6
81140;SHT31;70624;51.978;5.656;2024-02-28T14:36:40;13.0;61.7
81140;SHT31;70624;51.978;5.656;2024-02-28T14:39:09;13.0;61.8
81140;SHT31;70624;51.978;5.656;2024-02-28T14:41:41;13.0;61.5
81140;SHT31;70624;51.978;5.656;2024-02-28T14:44:10;12.9;61.6
81140;SHT31;70624;51.978;5.656;2024-02-28T14:46:38;12.9;61.9
81140;SHT31;70624;51.978;5.656;2024-02-28T14:49:07;12.9;61.9
81140;SHT31;70624;51.978;5.656;2024-02-28T14:51:36;12.8;62.0
81140;SHT31;70624;51.978;5.656;2024-02-28T14:54:04;12.8;62.1
81140;SHT31;70624;51.978;5.656;2024-02-28T14:56:33;12.8;62.4
81140;SHT31;70624;51.978;5.656;2024-02-28T14:59:03;12.7;62.3
81140;SHT31;70624;51.978;5.656;2024-02-28T15:01:32;12.7;62.6
81140;SHT31;70624;51.978;5.656;2024-02-28T15:04:00;12.7;63.0
81140;SHT31;70624;51.978;5.656;2024-02-28T15:06:29;12.6;63.1
81140;SHT31;70624;51.978;5.656;2024-02-28T15:08:59;12.6;63.5
81140;SHT31;70624;51.978;5.656;2024-02-28T15:11:29;12.6;63.1
81140;SHT31;70624;51.978;5.656;2024-02-28T15:13:58;12.6;62.8
81140;SHT31;70624;51.978;5.656;2024-02-28T15:16:26;12.5;63.0
81140;SHT31;70624;51.978;5.656;2024-02-28T15:18:55;12.5;63.2
81140;SHT31;70624;51.978;5.656;2024-02-28T15:21:23;12.5;63.3
81140;SHT31;70624;51.978;5.656;2024-02-28T15:23:53;12.5;63.2
81140;SHT31;70624;51.978;5.656;2024-02-28T15:26:21;12.4;63.2
81140;SHT31;70624;51.978;5.656;2024-02-28T15:28:50;12.4;63.3
81140;SHT31;70624;51.978;5.656;2024-02-28T15:31:18;12.3;63.3
81140;SHT31;70624;51.978;5.656;2024-02-28T15:33:48;12.3;63.8
81140;SHT31;70624;51.978;5.656;2024-02-28T15:36:16;12.3;64.0
81140;SHT31;70624;51.978;5.656;2024-02-28T15:38:45;12.3;63.7
81140;SHT31;70624;51.978;5.656;2024-02-28T15:41:13;12.2;63.6
81140;SHT31;70624;51.978;5.656;2024-02-28T15:43:41;12.2;63.8
81140;SHT31;70624;51.978;5.656;2024-02-28T15:46:10;12.2;63.9
81140;SHT31;70624;51.978;5.656;2024-02-28T15:48:41;12.2;64.0
81140;SHT31;70624;51.978;5.656;2024-02-28T15:51:10;12.2;64.0
81140;SHT31;70624;51.978;5.656;2024-02-28T15:53:38;12.2;64.1
81140;SHT31;70624;51.978;5.656;2024-02-28T15:56:07;12.2;64.1
81140;SHT31;70624;51.978;5.656;2024-02-28T15:58:35;12.2;64.2
81140;SHT31;70624;51.978;5.656;2024-02-28T16:01:06;12.2;64.0
81140;SHT31;70624;51.978;5.656;2024-02-28T16:03:36;12.2;64.1
81140;SHT31;70624;51.978;5.656;2024-02-28T16:06:07;12.2;64.2
81140;SHT31;70624;51.978;5.656;2024-02-28T16:08:39;12.1;63.9
81140;SHT31;70624;51.978;5.656;2024-02-28T16:11:10;12.1;64.1
81140;SHT31;70624;51.978;5.656;2024-02-28T16:13:39;12.1;64.3
81140;SHT31;70624;51.978;5.656;2024-02-28T16:16:09;12.2;64.2
81140;SHT31;70624;51.978;5.656;2024-02-28T16:18:37;12.2;64.4
81140;SHT31;70624;51.978;5.656;2024-02-28T16:21:06;12.2;64.3
81140;SHT31;70624;51.978;5.656;2024-02-28T16:23:35;12.2;64.3
81140;SHT31;70624;51.978;5.656;2024-02-28T16:26:04;12.2;64.2